»·PEaware :: N915TB KLAS-KMRY

N915TB :: KLAS-KMRY

FLIGHT INFORMATION

Flight Status: Arrived
Operator: Privately registered:
United States
More flights under this callsign
Pilot: Jake M. (20491)
Aircraft: SOCATA TBM-900
(TBM9)
More flights by this aircraft type
Origin: KLAS McCarran Intl
United States
Destination: KMRY Monterey Peninsula
United States
More flights between these airports :: More routes between these airports
Route: +HIDEN BTY KENNO BIH PXN SNS
File this flight plan on PilotEdge
Remarks:
Altitude:
(Current/Filed)
28,000ft
Speed:
(Current/Filed)
308kts
Departed: 15-Apr-20 08:37 PM
Arrived: 15-Apr-20 10:11 PM
Distance/Time
Traveled:
325nm/1:33
Distance/Time
To Go:
Arrived

Flight Plot

Page will automatically refresh every two minutes.

Flight plan parsing failed; only flown route is shown


Map Options




Map Legend


Flown Route
Filed Route
Departure Airport
Arrival Airport
Navaid (VOR, NDB)
Fix

Horizontal Profiles

Position Reports

Time Latitude Longitude Heading Altitude Ground
Speed
15-Apr-20 20:27 36.098942 -115.161024 38 2100ft 0kts
15-Apr-20 20:28 36.098942 -115.161024 38 2100ft 0kts
15-Apr-20 20:29 36.098942 -115.161024 38 2100ft 0kts
15-Apr-20 20:30 36.098942 -115.161024 38 2100ft 0kts
15-Apr-20 20:31 36.098942 -115.161024 38 2100ft 0kts
15-Apr-20 20:32 36.098942 -115.161024 38 2100ft 0kts
15-Apr-20 20:33 36.098942 -115.161024 38 2100ft 0kts
15-Apr-20 20:34 36.098942 -115.161024 38 2100ft 0kts
15-Apr-20 20:35 36.099564 -115.158602 68 2091ft 11kts
15-Apr-20 20:36 36.099626 -115.157237 115 2086ft 10kts
15-Apr-20 20:37 36.081371 -115.167030 205 2708ft 119kts
15-Apr-20 20:38 36.047329 -115.181918 201 4814ft 132kts
15-Apr-20 20:39 36.012244 -115.197467 201 6991ft 148kts
15-Apr-20 20:39 35.990228 -115.235198 241 8356ft 169kts
15-Apr-20 20:41 35.965732 -115.295403 275 10674ft 165kts
15-Apr-20 20:42 35.970957 -115.350962 280 12703ft 159kts
15-Apr-20 20:42 35.975020 -115.395104 280 14362ft 154kts
15-Apr-20 20:44 35.980602 -115.457459 279 16741ft 153kts
15-Apr-20 20:44 35.984416 -115.500567 279 18399ft 152kts
15-Apr-20 20:45 35.989738 -115.560651 278 19599ft 192kts
15-Apr-20 20:47 35.996200 -115.634691 278 21870ft 179kts
15-Apr-20 20:47 36.000651 -115.685812 277 23329ft 180kts
15-Apr-20 20:48 36.005914 -115.746671 277 24939ft 187kts
15-Apr-20 20:49 36.011497 -115.811645 277 26500ft 194kts
15-Apr-20 20:50 36.017319 -115.879635 278 27916ft 204kts
15-Apr-20 20:51 36.024002 -115.958169 277 27948ft 249kts
15-Apr-20 20:52 36.055479 -116.034857 318 27947ft 270kts
15-Apr-20 20:53 36.116264 -116.093134 319 27942ft 278kts
15-Apr-20 20:54 36.178047 -116.151639 319 27944ft 281kts
15-Apr-20 20:55 36.240428 -116.210805 319 27945ft 281kts
15-Apr-20 20:56 36.302446 -116.269745 319 27944ft 281kts
15-Apr-20 20:57 36.364625 -116.328962 319 27943ft 281kts
15-Apr-20 20:58 36.426765 -116.388263 319 27942ft 281kts
15-Apr-20 20:59 36.488969 -116.447755 319 27942ft 280kts
15-Apr-20 21:00 36.550743 -116.506943 319 27941ft 280kts
15-Apr-20 21:01 36.612200 -116.565965 319 27940ft 279kts
15-Apr-20 21:02 36.673656 -116.625099 319 27939ft 278kts
15-Apr-20 21:03 36.734759 -116.684024 318 27946ft 278kts
15-Apr-20 21:04 36.795871 -116.743070 318 27945ft 278kts
15-Apr-20 21:05 36.853557 -116.807030 315 27944ft 276kts
15-Apr-20 21:06 36.910570 -116.871093 315 27998ft 275kts
15-Apr-20 21:07 36.967531 -116.935236 315 28034ft 275kts
15-Apr-20 21:08 37.024511 -116.999524 315 28034ft 275kts
15-Apr-20 21:09 37.080934 -117.063335 315 28033ft 275kts
15-Apr-20 21:10 37.137413 -117.127332 315 28037ft 275kts
15-Apr-20 21:11 37.194345 -117.191986 315 28036ft 275kts
15-Apr-20 21:12 37.251115 -117.256584 315 28037ft 276kts
15-Apr-20 21:13 37.297152 -117.330515 284 28035ft 275kts
15-Apr-20 21:14 37.307192 -117.426349 278 28026ft 277kts
15-Apr-20 21:15 37.314789 -117.522939 278 28010ft 277kts
15-Apr-20 21:16 37.322223 -117.619598 278 27996ft 277kts
15-Apr-20 21:17 37.329566 -117.716154 277 28003ft 277kts
15-Apr-20 21:18 37.336823 -117.812714 278 28002ft 277kts
15-Apr-20 21:19 37.344036 -117.909581 278 28001ft 277kts
15-Apr-20 21:20 37.351129 -118.005956 277 28000ft 277kts
15-Apr-20 21:21 37.358188 -118.103009 277 28000ft 278kts
15-Apr-20 21:22 37.365159 -118.199958 277 27999ft 278kts
15-Apr-20 21:23 37.372073 -118.297230 277 27998ft 278kts
15-Apr-20 21:24 37.369538 -118.394360 257 28003ft 286kts
15-Apr-20 21:25 37.344572 -118.489917 256 27997ft 287kts
15-Apr-20 21:26 37.319449 -118.585272 256 28004ft 287kts
15-Apr-20 21:27 37.294568 -118.679311 256 28075ft 286kts
15-Apr-20 21:28 37.269295 -118.774545 255 28134ft 288kts
15-Apr-20 21:29 37.243740 -118.870433 255 28141ft 290kts
15-Apr-20 21:30 37.217980 -118.966751 255 28144ft 291kts
15-Apr-20 21:31 37.192128 -119.063050 255 28162ft 291kts
15-Apr-20 21:32 37.166110 -119.159621 255 28118ft 292kts
15-Apr-20 21:33 37.139975 -119.256263 255 28053ft 293kts
15-Apr-20 21:34 37.113637 -119.353292 255 28008ft 293kts
15-Apr-20 21:35 37.087397 -119.449617 255 28007ft 292kts
15-Apr-20 21:36 37.060984 -119.546212 255 28007ft 292kts
15-Apr-20 21:37 37.034467 -119.642875 255 28007ft 292kts
15-Apr-20 21:38 37.008238 -119.738066 254 28012ft 293kts
15-Apr-20 21:39 36.981446 -119.834984 254 28012ft 293kts
15-Apr-20 21:40 36.954712 -119.931350 254 28011ft 293kts
15-Apr-20 21:41 36.928105 -120.026917 254 27048ft 288kts
15-Apr-20 21:42 36.901673 -120.121456 254 26053ft 286kts
15-Apr-20 21:43 36.876107 -120.212684 254 25064ft 284kts
15-Apr-20 21:44 36.849925 -120.305727 254 24048ft 282kts
15-Apr-20 21:45 36.823824 -120.398161 254 23025ft 280kts
15-Apr-20 21:46 36.797578 -120.490832 253 21541ft 288kts
15-Apr-20 21:47 36.770670 -120.585493 253 19991ft 290kts
15-Apr-20 21:48 36.743836 -120.679552 253 18467ft 289kts
15-Apr-20 21:49 36.717080 -120.773091 253 16951ft 283kts
15-Apr-20 21:50 36.710036 -120.869606 267 15464ft 278kts
15-Apr-20 21:51 36.704234 -120.966069 267 13992ft 280kts
15-Apr-20 21:52 36.698304 -121.063197 267 12509ft 282kts
15-Apr-20 21:53 36.692254 -121.160897 267 11018ft 286kts
15-Apr-20 21:54 36.686119 -121.258427 266 9630ft 273kts
15-Apr-20 21:55 36.680153 -121.352276 266 8324ft 272kts
15-Apr-20 21:56 36.674088 -121.446526 266 7034ft 269kts
15-Apr-20 21:57 36.668378 -121.534117 266 6977ft 242kts
15-Apr-20 21:58 36.663207 -121.617708 267 6659ft 249kts
15-Apr-20 21:59 36.659339 -121.703547 267 5813ft 256kts
15-Apr-20 22:00 36.655269 -121.792619 267 5012ft 256kts
15-Apr-20 22:01 36.651167 -121.881282 267 4212ft 256kts
15-Apr-20 22:02 36.647005 -121.969392 267 3577ft 245kts
15-Apr-20 22:03 36.635009 -122.047594 248 3575ft 213kts
15-Apr-20 22:04 36.621067 -122.114981 310 3567ft 194kts
15-Apr-20 22:05 36.652544 -122.082651 83 3589ft 205kts
15-Apr-20 22:06 36.643795 -122.012186 112 2769ft 223kts
15-Apr-20 22:07 36.622214 -121.948293 113 1717ft 165kts
15-Apr-20 22:08 36.605866 -121.900123 114 924ft 133kts
15-Apr-20 22:09 36.592027 -121.859259 114 255ft 124kts
15-Apr-20 22:10 36.586924 -121.847764 292 186ft 0kts
15-Apr-20 22:11 36.586924 -121.847764 292 186ft 0kts
15-Apr-20 22:12 36.586924 -121.847764 292 186ft 0kts
15-Apr-20 22:13 36.586924 -121.847764 292 186ft 0kts
15-Apr-20 22:14 36.586924 -121.847764 292 186ft 0kts
15-Apr-20 22:15 36.586924 -121.847764 292 186ft 0kts
15-Apr-20 22:16 36.586924 -121.847764 292 186ft 0kts
15-Apr-20 22:17 36.586924 -121.847764 292 186ft 0kts
15-Apr-20 22:18 36.586924 -121.847764 292 186ft 0kts
15-Apr-20 22:19 36.586924 -121.847764 292 186ft 0kts
15-Apr-20 22:20 36.586924 -121.847764 292 186ft 0kts
15-Apr-20 22:21 36.586924 -121.847764 292 186ft 0kts
15-Apr-20 22:22 36.586924 -121.847764 292 186ft 0kts
15-Apr-20 22:23 36.586924 -121.847764 292 186ft 0kts
15-Apr-20 22:24 36.586924 -121.847764 292 186ft 0kts

Navigation Log

Ident Type
Flight plan parsing failed, navigation log unavailable